Etusivu
METAR-TAF:

METAR-TAF

Lentoasemat :

Puerto Maldonado, Peru

Leveyspiiri: 12-38S, Pituuspiiri: 069-12W, korkeus merenpinnasta: 265 m

Tämänhetkinen sää

Tämä raportti tehtiin 4 tuntia ja 36 minuuttia sitten, kello 23.00 UTC
Tuuli 3 kn koillisesta
Lämpötila 28°C
Kosteus 84%
Ilmanpaine 1007 hPa
Näkyvyys 10 km tai enemmän
ei pilviä alle 1500 m:ssä eikä cumulonimbus-pilviä

METAR: SPTU 232300Z 05003KT CAVOK 28/25 Q1007 RMK PP000

Aika: 22:36 (03:36 UTC)

Sääennuste

Tämä raportti tehtiin 10 tuntia ja 36 minuuttia sitten, kello 17.00 UTC
Ennuste voimassa 23. päivästä klo 18 UTC - 24. päivään klo 18 UTC
Tuuli 2 kn eri suunnista
Näkyvyys 10 km tai enemmän
Hajonneita pilviä 2000 ft:n korkeudessa
Ajoittain
23. päivästä klo 18 UTC - 23. päivään klo 22 UTC
Muutamia pilviä 2000 ft:n korkeudessa, Kasvava cumulus-pilvi.
Hajanaisia pilviä 3000 ft:n korkeudessa

TAF: SPTU 231700Z 2318/2418 VRB02KT 9999 BKN020 TX33/2319Z TN24/2411Z TEMPO 2318/2322 FEW020TCU SCT030

Säähavainnot ja -ennusteet yli 4000 lentoasemalta (METAR- ja TAF-raportit).

Käytössä olevat sääasemat on merkitty karttaan keltaisilla ja punaisilla pisteillä.

Aseta hiiri pisteen päälle nähdäksesi sääaseman nimen.

Klikkaa sitten nähdäksesi säähavainnot ja -ennusteet.

Kartan vaihtaminen: klikkaa mustalla rastilla varustettuja vihreitä pisteitä, niin voit zoomata sisään; viivalla varustettua vihreää pistettä, niin voit zoomata ulos tai vihreitä nuolia, niin pääset viereisille kartoille.


METAR-TAF: